Time;durP1;ratioP1;P1;durP2;ratioP2;P2;SDS_P1;SDS_P2;PMS_P1;PMS_P2;Temp;Humidity;BMP_temperature;BMP_pressure;BME280_temperature;BME280_humidity;BME280_pressure;Samples;Min_cycle;Max_cycle;Signal;HPM_P1;HPM_P2
2023/12/18 00:01:45;;;;;;;22.37;18.60;;;8.20;99.90;;;;;;5015967;28;20457;-79
2023/12/18 00:04:13;;;;;;;22.27;18.67;;;8.20;99.90;;;;;;5015518;28;20483;-79
2023/12/18 00:06:42;;;;;;;20.73;18.60;;;8.20;99.90;;;;;;5015935;28;20814;-78
2023/12/18 00:09:12;;;;;;;22.30;18.67;;;8.20;99.90;;;;;;5016040;28;20796;-79
2023/12/18 00:11:40;;;;;;;20.40;17.47;;;8.20;99.90;;;;;;5015803;28;20451;-79
2023/12/18 00:14:08;;;;;;;23.63;20.20;;;8.20;99.90;;;;;;5017290;28;20463;-79
2023/12/18 00:16:37;;;;;;;21.77;19.23;;;8.20;99.90;;;;;;5016055;28;20506;-79
2023/12/18 00:19:05;;;;;;;25.40;19.73;;;8.20;99.90;;;;;;5015677;28;20517;-79
2023/12/18 00:21:34;;;;;;;25.20;19.10;;;8.20;99.90;;;;;;5017232;28;20453;-79
2023/12/18 00:24:02;;;;;;;21.40;18.17;;;8.20;99.90;;;;;;5015408;28;20465;-79
2023/12/18 00:26:32;;;;;;;22.23;18.40;;;8.20;99.90;;;;;;5017145;28;20775;-79
2023/12/18 00:29:00;;;;;;;21.40;19.20;;;8.20;99.90;;;;;;5019941;28;20466;-79
2023/12/18 00:31:28;;;;;;;22.47;19.73;;;8.20;99.90;;;;;;5018851;28;20515;-79
2023/12/18 00:33:57;;;;;;;20.50;18.30;;;8.20;99.90;;;;;;5019254;28;20458;-79
2023/12/18 00:36:25;;;;;;;24.23;19.13;;;8.20;99.90;;;;;;5018557;28;20473;-79
2023/12/18 00:38:53;;;;;;;20.53;18.20;;;8.20;99.90;;;;;;5018048;28;20451;-79
2023/12/18 00:41:22;;;;;;;24.97;20.87;;;8.20;99.90;;;;;;5018810;28;20578;-80
2023/12/18 00:43:51;;;;;;;24.33;19.37;;;8.20;99.90;;;;;;5019069;28;20454;-79
2023/12/18 00:46:19;;;;;;;24.70;20.17;;;8.20;99.90;;;;;;5018467;28;20462;-79
2023/12/18 00:48:48;;;;;;;25.33;20.13;;;8.20;99.90;;;;;;5018349;28;20455;-79
2023/12/18 00:51:16;;;;;;;24.73;19.67;;;8.20;99.90;;;;;;5019641;28;20810;-79
2023/12/18 00:53:45;;;;;;;24.37;20.60;;;8.20;99.90;;;;;;5018281;28;20510;-79
2023/12/18 00:56:13;;;;;;;24.47;18.90;;;8.10;99.90;;;;;;5018697;28;20953;-79
2023/12/18 00:58:41;;;;;;;25.00;19.40;;;8.10;99.90;;;;;;5018591;28;20443;-79
2023/12/18 01:01:11;;;;;;;21.63;19.23;;;8.10;99.90;;;;;;5018046;28;20479;-79
2023/12/18 01:03:39;;;;;;;23.13;20.10;;;8.20;99.90;;;;;;5017639;28;20448;-79
2023/12/18 01:06:08;;;;;;;23.27;20.77;;;8.10;99.90;;;;;;5017644;28;20479;-79
2023/12/18 01:08:36;;;;;;;21.73;19.40;;;8.20;99.90;;;;;;5017986;28;20856;-78
2023/12/18 01:11:04;;;;;;;23.00;19.97;;;8.10;99.90;;;;;;5019071;28;20856;-79
2023/12/18 01:13:32;;;;;;;25.93;21.13;;;8.10;99.90;;;;;;5018160;28;20452;-78
2023/12/18 01:16:02;;;;;;;25.10;20.30;;;8.10;99.90;;;;;;5017674;28;20526;-79
2023/12/18 01:18:31;;;;;;;28.67;22.03;;;8.10;99.90;;;;;;5017450;28;20506;-78
2023/12/18 01:21:00;;;;;;;24.77;21.63;;;8.10;99.90;;;;;;5017365;28;20480;-79
2023/12/18 01:23:28;;;;;;;25.97;22.20;;;8.10;99.90;;;;;;5017938;28;20443;-79
2023/12/18 01:25:56;;;;;;;22.70;20.27;;;8.10;99.90;;;;;;5019286;28;20468;-78
2023/12/18 01:28:24;;;;;;;24.53;22.17;;;8.10;99.90;;;;;;5017661;28;20541;-78
2023/12/18 01:30:53;;;;;;;25.80;23.00;;;8.10;99.90;;;;;;5017779;28;20474;-79
2023/12/18 01:33:21;;;;;;;26.50;22.70;;;8.10;99.90;;;;;;5017836;28;20503;-79
2023/12/18 01:35:51;;;;;;;25.60;23.10;;;8.10;99.90;;;;;;5017508;28;21019;-79
2023/12/18 01:38:19;;;;;;;26.07;23.20;;;8.00;99.90;;;;;;5017294;28;20461;-79
2023/12/18 01:40:47;;;;;;;26.73;23.93;;;8.10;99.90;;;;;;5016457;28;20505;-79
2023/12/18 01:43:26;;;;;;;30.93;24.50;;;8.00;99.90;;;;;;5018208;28;20444;-79
2023/12/18 01:45:58;;;;;;;24.57;22.03;;;8.10;99.90;;;;;;5017033;28;20477;-79
2023/12/18 01:48:27;;;;;;;28.87;24.37;;;8.00;99.90;;;;;;5019017;28;20420;-78
2023/12/18 01:50:59;;;;;;;29.80;23.60;;;8.00;99.90;;;;;;5017026;28;20463;-79
2023/12/18 01:53:32;;;;;;;27.70;24.77;;;8.00;99.90;;;;;;5018113;28;20546;-78
2023/12/18 01:56:02;;;;;;;26.70;23.80;;;8.00;99.90;;;;;;5018384;28;20453;-79
2023/12/18 01:58:34;;;;;;;31.53;24.17;;;8.00;99.90;;;;;;5018326;28;20785;-79
2023/12/18 02:01:02;;;;;;;27.73;23.67;;;8.00;99.90;;;;;;5016937;28;20474;-79
2023/12/18 02:03:31;;;;;;;27.20;23.80;;;8.00;99.90;;;;;;5016601;28;20451;-79
2023/12/18 02:06:04;;;;;;;30.47;24.60;;;8.00;99.90;;;;;;5016559;28;20530;-79
2023/12/18 02:08:32;;;;;;;25.57;22.60;;;8.00;99.90;;;;;;5016370;28;20447;-79
2023/12/18 02:11:01;;;;;;;26.90;24.10;;;8.00;99.90;;;;;;5016576;28;20443;-79
2023/12/18 02:13:29;;;;;;;28.00;25.00;;;8.00;99.90;;;;;;5016082;28;20551;-78
2023/12/18 02:15:58;;;;;;;31.13;24.10;;;8.00;99.90;;;;;;5015974;28;20918;-78
2023/12/18 02:18:27;;;;;;;27.50;24.27;;;8.00;99.90;;;;;;5016187;28;20446;-78
2023/12/18 02:20:56;;;;;;;28.27;24.33;;;8.00;99.90;;;;;;5017191;28;20487;-78
2023/12/18 02:23:25;;;;;;;32.53;26.37;;;8.00;99.90;;;;;;5016087;28;20466;-79
2023/12/18 02:25:54;;;;;;;27.67;24.77;;;8.00;99.90;;;;;;5016197;28;20471;-78
2023/12/18 02:28:22;;;;;;;30.10;26.27;;;8.00;99.90;;;;;;5015910;28;20459;-78
2023/12/18 02:30:50;;;;;;;28.07;25.03;;;8.00;99.90;;;;;;5016837;28;20458;-80
2023/12/18 02:33:19;;;;;;;29.40;26.40;;;8.00;99.90;;;;;;5016352;28;20451;-79
2023/12/18 02:35:47;;;;;;;27.50;24.70;;;8.00;99.90;;;;;;5016437;28;20476;-79
2023/12/18 02:38:16;;;;;;;30.20;25.40;;;8.00;99.90;;;;;;5017772;28;20545;-79
2023/12/18 02:40:45;;;;;;;30.60;25.97;;;8.00;99.90;;;;;;5018925;28;20525;-79
2023/12/18 02:43:13;;;;;;;44.33;26.40;;;8.00;99.90;;;;;;5017493;28;20546;-79
2023/12/18 02:45:41;;;;;;;29.87;26.67;;;8.00;99.90;;;;;;5018664;28;20475;-79
2023/12/18 02:48:10;;;;;;;30.57;27.40;;;8.00;99.90;;;;;;5017205;28;20474;-78
2023/12/18 02:50:38;;;;;;;28.40;24.50;;;8.00;99.90;;;;;;5018228;28;20870;-79
2023/12/18 02:53:06;;;;;;;35.03;26.30;;;8.00;99.90;;;;;;5018646;28;20526;-79
2023/12/18 02:55:35;;;;;;;32.07;26.30;;;8.00;99.90;;;;;;5017401;28;20486;-79
2023/12/18 02:58:04;;;;;;;30.23;26.00;;;8.00;99.90;;;;;;5016926;28;20875;-79
2023/12/18 03:00:33;;;;;;;28.27;23.50;;;8.00;99.90;;;;;;5016312;28;20459;-79
2023/12/18 03:03:01;;;;;;;31.83;27.00;;;8.00;99.90;;;;;;5016799;28;20455;-79
2023/12/18 03:05:29;;;;;;;29.33;25.77;;;8.00;99.90;;;;;;5016679;28;20992;-79
2023/12/18 03:07:58;;;;;;;31.83;27.30;;;8.00;99.90;;;;;;5017910;28;20436;-79
2023/12/18 03:10:26;;;;;;;28.33;25.17;;;8.00;99.90;;;;;;5017912;28;20510;-79
2023/12/18 03:12:54;;;;;;;30.40;26.60;;;8.00;99.90;;;;;;5016706;28;20494;-78
2023/12/18 03:15:24;;;;;;;33.37;26.80;;;8.00;99.90;;;;;;5017907;28;20463;-79
2023/12/18 03:17:52;;;;;;;33.40;27.03;;;8.00;99.90;;;;;;5017306;28;20441;-79
2023/12/18 03:20:20;;;;;;;29.40;26.30;;;8.00;99.90;;;;;;5017404;28;20445;-79
2023/12/18 03:22:49;;;;;;;30.07;26.80;;;8.00;99.90;;;;;;5015888;28;20468;-79
2023/12/18 03:25:17;;;;;;;34.03;26.50;;;8.00;99.90;;;;;;5017608;28;20479;-79
2023/12/18 03:27:45;;;;;;;30.80;27.60;;;8.00;99.90;;;;;;5015943;28;20503;-78
2023/12/18 03:30:14;;;;;;;29.10;25.87;;;8.00;99.90;;;;;;5016140;28;20555;-79
2023/12/18 03:32:43;;;;;;;32.80;26.37;;;8.00;99.90;;;;;;5016189;28;20446;-78
2023/12/18 03:35:12;;;;;;;31.87;27.77;;;8.00;99.90;;;;;;5017637;28;20461;-79
2023/12/18 03:37:40;;;;;;;31.57;26.60;;;8.00;99.90;;;;;;5016283;28;20550;-79
2023/12/18 03:40:09;;;;;;;33.70;26.50;;;8.00;99.90;;;;;;5016442;28;20458;-79
2023/12/18 03:42:40;;;;;;;29.60;26.53;;;8.00;99.90;;;;;;5017329;28;20482;-78
2023/12/18 03:45:09;;;;;;;32.73;27.80;;;8.00;99.90;;;;;;5015990;28;20562;-79
2023/12/18 03:47:38;;;;;;;34.93;27.47;;;7.90;99.90;;;;;;5015793;28;20493;-78
2023/12/18 03:50:10;;;;;;;31.03;27.73;;;7.90;99.90;;;;;;5015810;28;20482;-78
2023/12/18 03:52:38;;;;;;;34.53;27.50;;;7.90;99.90;;;;;;5015369;28;20443;-78
2023/12/18 03:55:07;;;;;;;32.60;26.67;;;7.90;99.90;;;;;;5015463;28;20479;-79
2023/12/18 03:57:35;;;;;;;33.60;28.87;;;7.90;99.90;;;;;;5015531;28;20494;-79
2023/12/18 04:00:05;;;;;;;32.43;28.67;;;7.90;99.90;;;;;;5015582;28;20451;-79
2023/12/18 04:02:39;;;;;;;32.53;29.07;;;7.90;99.90;;;;;;5018256;28;21017;-78
2023/12/18 04:05:09;;;;;;;32.60;29.20;;;7.90;99.90;;;;;;5019096;28;20536;-79
2023/12/18 04:07:38;;;;;;;33.03;29.43;;;7.90;99.90;;;;;;5020352;28;20448;-78
2023/12/18 04:10:08;;;;;;;37.40;28.77;;;7.90;99.90;;;;;;5020442;28;20437;-79
2023/12/18 04:12:37;;;;;;;32.43;29.03;;;7.90;99.90;;;;;;5018926;28;20487;-79
2023/12/18 04:15:07;;;;;;;33.00;28.03;;;7.90;99.90;;;;;;5018398;28;20475;-78
2023/12/18 04:17:35;;;;;;;34.27;29.00;;;7.90;99.90;;;;;;5018756;28;20458;-78
2023/12/18 04:20:04;;;;;;;35.10;29.30;;;7.80;99.90;;;;;;5018959;28;20450;-78
2023/12/18 04:22:34;;;;;;;38.70;30.10;;;7.80;99.90;;;;;;5019975;28;20892;-79
2023/12/18 04:25:02;;;;;;;36.13;30.70;;;7.80;99.90;;;;;;5019833;28;20542;-78
2023/12/18 04:27:31;;;;;;;29.70;26.50;;;7.80;99.90;;;;;;5018602;28;20878;-78
2023/12/18 04:29:59;;;;;;;33.23;29.60;;;7.80;99.90;;;;;;5018610;28;20448;-79
2023/12/18 04:32:28;;;;;;;34.37;29.93;;;7.80;99.90;;;;;;5017922;28;20789;-79
2023/12/18 04:34:56;;;;;;;35.10;31.40;;;7.80;99.90;;;;;;5018437;28;20471;-79
2023/12/18 04:37:24;;;;;;;42.20;31.10;;;7.80;99.90;;;;;;5018397;28;20486;-79
2023/12/18 04:39:54;;;;;;;37.90;32.20;;;7.80;99.90;;;;;;5018119;28;20534;-79
2023/12/18 04:42:23;;;;;;;35.43;30.47;;;7.80;99.90;;;;;;5018260;28;20469;-78
2023/12/18 04:44:51;;;;;;;37.77;33.70;;;7.80;99.90;;;;;;5018148;28;20875;-79
2023/12/18 04:47:19;;;;;;;36.50;32.70;;;7.80;99.90;;;;;;5019212;28;20807;-79
2023/12/18 04:49:47;;;;;;;37.57;32.23;;;7.80;99.90;;;;;;5017812;28;20994;-78
2023/12/18 04:52:16;;;;;;;35.53;31.77;;;7.80;99.90;;;;;;5017833;28;20476;-78
2023/12/18 04:54:44;;;;;;;36.60;32.70;;;7.80;99.90;;;;;;5017617;28;20557;-77
2023/12/18 04:57:15;;;;;;;37.47;32.50;;;7.70;99.90;;;;;;5017588;28;20871;-78
2023/12/18 04:59:43;;;;;;;39.13;32.27;;;7.80;99.90;;;;;;5017684;28;20443;-78
2023/12/18 05:02:11;;;;;;;37.50;33.40;;;7.70;99.90;;;;;;5017644;28;20468;-79
2023/12/18 05:04:40;;;;;;;37.57;33.53;;;7.70;99.90;;;;;;5017745;28;20484;-79
2023/12/18 05:07:11;;;;;;;41.80;34.80;;;7.70;99.90;;;;;;5017630;28;20458;-79
2023/12/18 05:09:39;;;;;;;36.50;32.20;;;7.70;99.90;;;;;;5017455;28;20440;-78
2023/12/18 05:12:08;;;;;;;38.70;32.93;;;7.70;99.90;;;;;;5017665;28;20469;-78
2023/12/18 05:14:38;;;;;;;45.97;35.43;;;7.70;99.90;;;;;;5018330;28;20465;-79
2023/12/18 05:17:06;;;;;;;37.97;33.90;;;7.70;99.90;;;;;;5017326;28;20458;-78
2023/12/18 05:19:34;;;;;;;41.53;32.53;;;7.70;99.90;;;;;;5017588;28;20868;-79
2023/12/18 05:22:03;;;;;;;39.40;34.77;;;7.70;99.90;;;;;;5017202;28;20854;-78
2023/12/18 05:24:31;;;;;;;39.33;34.60;;;7.70;99.90;;;;;;5018571;28;20454;-77
2023/12/18 05:27:00;;;;;;;41.00;33.80;;;7.70;99.90;;;;;;5016923;28;20482;-79
2023/12/18 05:29:28;;;;;;;38.90;34.90;;;7.80;99.90;;;;;;5017153;28;20540;-79
2023/12/18 05:31:58;;;;;;;37.97;33.50;;;7.80;99.90;;;;;;5019223;28;20469;-78
2023/12/18 05:34:26;;;;;;;39.63;33.93;;;7.80;99.90;;;;;;5017799;28;20474;-79
2023/12/18 05:36:58;;;;;;;38.33;34.23;;;7.80;99.90;;;;;;5018192;28;20454;-79
2023/12/18 05:39:27;;;;;;;37.30;33.10;;;7.80;99.90;;;;;;5018105;28;20440;-80
2023/12/18 05:41:56;;;;;;;40.30;34.07;;;7.80;99.90;;;;;;5019692;28;20441;-80
2023/12/18 05:44:24;;;;;;;42.40;35.30;;;7.80;99.90;;;;;;5020707;28;20490;-79
2023/12/18 05:46:52;;;;;;;39.63;33.57;;;7.80;99.90;;;;;;5020248;28;20453;-79
2023/12/18 05:49:22;;;;;;;38.07;33.10;;;7.80;99.90;;;;;;5018344;28;20487;-79
2023/12/18 05:51:51;;;;;;;40.27;34.87;;;7.80;99.90;;;;;;5018547;28;20527;-79
2023/12/18 05:54:19;;;;;;;39.00;34.77;;;7.80;99.90;;;;;;5019041;28;20467;-79
2023/12/18 05:56:47;;;;;;;42.57;35.87;;;7.80;99.90;;;;;;5018142;28;20821;-79
2023/12/18 05:59:15;;;;;;;38.10;33.90;;;7.80;99.90;;;;;;5019038;28;20502;-79
2023/12/18 06:01:44;;;;;;;38.70;34.50;;;7.80;99.90;;;;;;5018719;28;20496;-79
2023/12/18 06:04:12;;;;;;;37.07;33.10;;;7.80;99.90;;;;;;5019448;28;20477;-79
2023/12/18 06:06:42;;;;;;;36.27;32.40;;;7.80;99.90;;;;;;5017884;28;20493;-78
2023/12/18 06:09:10;;;;;;;41.13;36.40;;;7.80;99.90;;;;;;5018200;28;20467;-79
2023/12/18 06:11:39;;;;;;;40.83;34.60;;;7.80;99.90;;;;;;5017998;28;20893;-78
2023/12/18 06:14:07;;;;;;;42.03;35.17;;;7.80;99.90;;;;;;5017676;28;20459;-79
2023/12/18 06:16:35;;;;;;;40.20;34.10;;;7.80;99.90;;;;;;5018160;28;20506;-79
2023/12/18 06:19:03;;;;;;;42.27;34.07;;;7.80;99.90;;;;;;5019085;28;20510;-79
2023/12/18 06:21:32;;;;;;;38.67;33.60;;;7.80;99.90;;;;;;5017723;28;20462;-79
2023/12/18 06:24:01;;;;;;;39.20;33.00;;;7.80;99.90;;;;;;5016972;28;20813;-78
2023/12/18 06:26:29;;;;;;;38.00;33.40;;;7.80;99.90;;;;;;5016428;28;20506;-79
2023/12/18 06:28:57;;;;;;;41.80;35.17;;;7.80;99.90;;;;;;5017161;28;20493;-78
2023/12/18 06:31:26;;;;;;;37.90;34.20;;;7.80;99.90;;;;;;5017227;28;20455;-79
2023/12/18 06:33:54;;;;;;;38.40;34.20;;;7.80;99.90;;;;;;5018005;28;20439;-79
2023/12/18 06:36:23;;;;;;;40.00;33.50;;;7.80;99.90;;;;;;5017195;28;20455;-79
2023/12/18 06:38:51;;;;;;;39.63;34.37;;;7.80;99.90;;;;;;5016258;28;20461;-79
2023/12/18 06:41:21;;;;;;;38.33;34.33;;;7.80;99.90;;;;;;5016241;28;20487;-78
2023/12/18 06:43:52;;;;;;;41.60;32.17;;;7.80;99.90;;;;;;5016313;28;20506;-78
2023/12/18 06:46:20;;;;;;;37.67;33.67;;;7.80;99.90;;;;;;5017789;28;20439;-78
2023/12/18 06:48:49;;;;;;;38.23;34.40;;;7.80;99.90;;;;;;5016346;28;20972;-80
2023/12/18 06:51:17;;;;;;;38.57;32.80;;;7.80;99.90;;;;;;5016304;28;20444;-79
2023/12/18 06:53:45;;;;;;;36.60;32.23;;;7.80;99.90;;;;;;5015958;28;20459;-79
2023/12/18 06:56:14;;;;;;;38.70;32.90;;;7.80;99.90;;;;;;5015997;28;20539;-79
2023/12/18 06:58:43;;;;;;;41.37;33.50;;;7.90;99.90;;;;;;5015924;28;20999;-79
2023/12/18 07:01:14;;;;;;;38.07;33.70;;;7.80;99.90;;;;;;5017597;28;20439;-79
2023/12/18 07:03:43;;;;;;;36.80;31.27;;;7.80;99.90;;;;;;5016245;28;20504;-79
2023/12/18 07:06:11;;;;;;;35.50;31.67;;;7.90;99.90;;;;;;5015814;28;20575;-79
2023/12/18 07:08:39;;;;;;;36.77;32.37;;;7.90;99.90;;;;;;5015238;28;20448;-79
2023/12/18 07:11:09;;;;;;;42.53;33.37;;;7.90;99.90;;;;;;5015646;28;20447;-78
2023/12/18 07:13:37;;;;;;;37.27;33.17;;;7.90;99.90;;;;;;5015579;28;20800;-78
2023/12/18 07:16:07;;;;;;;39.27;32.27;;;7.90;99.90;;;;;;5015580;28;20560;-79
2023/12/18 07:18:36;;;;;;;37.00;32.97;;;7.90;99.90;;;;;;5015460;28;20446;-78
2023/12/18 07:21:05;;;;;;;34.87;31.23;;;7.90;99.90;;;;;;5016945;28;20463;-78
2023/12/18 07:23:33;;;;;;;33.33;29.93;;;7.90;99.90;;;;;;5017290;28;20502;-79
2023/12/18 07:26:03;;;;;;;36.70;30.43;;;7.90;99.90;;;;;;5015161;28;20479;-79
2023/12/18 07:28:31;;;;;;;34.80;31.07;;;7.90;99.90;;;;;;5015809;28;20462;-79
2023/12/18 07:30:59;;;;;;;35.00;31.20;;;7.90;99.90;;;;;;5015435;28;20455;-79
2023/12/18 07:33:29;;;;;;;35.37;31.30;;;7.90;99.90;;;;;;5016875;28;20440;-79
2023/12/18 07:35:58;;;;;;;34.13;30.33;;;7.90;99.90;;;;;;5015665;28;20475;-79
2023/12/18 07:38:26;;;;;;;33.90;30.03;;;7.90;99.90;;;;;;5017556;28;20442;-79
2023/12/18 07:40:54;;;;;;;35.40;30.20;;;7.90;99.90;;;;;;5016844;28;20533;-79
2023/12/18 07:43:22;;;;;;;32.30;28.83;;;8.00;99.90;;;;;;5015665;28;20483;-78
2023/12/18 07:45:51;;;;;;;35.03;30.60;;;8.00;99.90;;;;;;5015642;28;20467;-78
2023/12/18 07:48:21;;;;;;;32.17;28.93;;;8.00;99.90;;;;;;5015726;28;20487;-78
2023/12/18 07:50:52;;;;;;;33.50;29.27;;;8.00;99.90;;;;;;5015813;28;20448;-80
2023/12/18 07:53:20;;;;;;;35.20;29.83;;;8.00;99.90;;;;;;5016237;28;20497;-78
2023/12/18 07:55:48;;;;;;;33.70;29.50;;;8.00;99.90;;;;;;5015064;28;20525;-79
2023/12/18 07:58:19;;;;;;;32.03;28.87;;;8.00;99.90;;;;;;5017253;28;20428;-79
2023/12/18 08:00:47;;;;;;;30.13;26.97;;;8.00;99.90;;;;;;5016616;28;20452;-79
2023/12/18 08:03:16;;;;;;;31.63;27.90;;;8.00;99.90;;;;;;5015249;28;20983;-78
2023/12/18 08:05:44;;;;;;;31.97;28.60;;;8.00;99.90;;;;;;5015000;28;20521;-79
2023/12/18 08:08:14;;;;;;;33.60;29.27;;;8.10;99.90;;;;;;5014648;28;20886;-79
2023/12/18 08:10:43;;;;;;;29.17;26.13;;;8.10;99.90;;;;;;5014952;28;20467;-79
2023/12/18 08:13:11;;;;;;;31.97;28.77;;;8.10;99.90;;;;;;5015143;28;20961;-78
2023/12/18 08:15:39;;;;;;;36.83;28.43;;;8.10;99.90;;;;;;5014389;28;20498;-79
2023/12/18 08:18:08;;;;;;;32.60;28.40;;;8.10;99.90;;;;;;5016444;28;20458;-79
2023/12/18 08:20:36;;;;;;;33.33;29.83;;;8.10;99.90;;;;;;5015166;28;20972;-78
2023/12/18 08:23:05;;;;;;;34.97;29.97;;;8.10;99.90;;;;;;5014861;28;20435;-80
2023/12/18 08:25:35;;;;;;;34.37;28.30;;;8.10;99.90;;;;;;5014713;28;20488;-79
2023/12/18 08:28:04;;;;;;;32.40;27.40;;;8.10;99.90;;;;;;5014525;28;20476;-78
2023/12/18 08:30:32;;;;;;;31.80;27.57;;;8.10;99.90;;;;;;5015002;28;20462;-79
2023/12/18 08:33:01;;;;;;;31.87;27.87;;;8.10;99.90;;;;;;5014575;28;20452;-79
2023/12/18 08:35:30;;;;;;;31.67;27.93;;;8.20;99.90;;;;;;5015777;28;20499;-79
2023/12/18 08:37:58;;;;;;;31.17;27.77;;;8.20;99.90;;;;;;5014516;28;20487;-79
2023/12/18 08:40:27;;;;;;;29.20;26.10;;;8.20;99.90;;;;;;5015787;28;20506;-79
2023/12/18 08:42:56;;;;;;;31.33;27.97;;;8.20;99.90;;;;;;5015326;28;20447;-79
2023/12/18 08:45:25;;;;;;;31.47;28.17;;;8.20;99.90;;;;;;5015181;28;20535;-78
2023/12/18 08:47:54;;;;;;;32.33;27.77;;;8.20;99.90;;;;;;5015035;28;20451;-79
2023/12/18 08:50:23;;;;;;;32.90;27.20;;;8.20;99.90;;;;;;5020763;28;20462;-79
2023/12/18 08:52:51;;;;;;;30.60;27.27;;;8.20;99.90;;;;;;5019423;28;20447;-79
2023/12/18 08:55:19;;;;;;;29.67;26.60;;;8.20;99.90;;;;;;5020574;28;20460;-80
2023/12/18 08:57:48;;;;;;;32.53;27.40;;;8.20;99.90;;;;;;5020297;28;20435;-79
2023/12/18 09:00:18;;;;;;;30.83;27.63;;;8.20;99.90;;;;;;5020144;28;20459;-80
2023/12/18 09:02:46;;;;;;;32.03;27.90;;;8.20;99.90;;;;;;5020220;28;20471;-79
2023/12/18 09:05:15;;;;;;;31.40;28.00;;;8.20;99.90;;;;;;5019249;28;20534;-79
2023/12/18 09:07:43;;;;;;;34.83;27.70;;;8.20;99.90;;;;;;5018597;28;20949;-79
2023/12/18 09:10:13;;;;;;;31.87;27.60;;;8.20;99.90;;;;;;5020111;28;20436;-79
2023/12/18 09:12:42;;;;;;;32.97;27.70;;;8.30;99.90;;;;;;5018785;28;20451;-79
2023/12/18 09:15:11;;;;;;;31.37;28.17;;;8.30;99.90;;;;;;5018497;28;20471;-79
2023/12/18 09:17:41;;;;;;;32.53;27.40;;;8.30;99.90;;;;;;5019867;28;20431;-80
2023/12/18 09:20:10;;;;;;;33.87;30.23;;;8.30;99.90;;;;;;5019675;28;20538;-78
2023/12/18 09:22:38;;;;;;;35.83;28.40;;;8.30;99.90;;;;;;5019004;28;20440;-79
2023/12/18 09:25:07;;;;;;;33.10;29.40;;;8.30;99.90;;;;;;5018183;28;20475;-79
2023/12/18 09:27:36;;;;;;;33.60;30.00;;;8.30;99.90;;;;;;5019054;28;20471;-79
2023/12/18 09:30:05;;;;;;;34.30;29.80;;;8.30;99.90;;;;;;5018173;28;20459;-79
2023/12/18 09:32:35;;;;;;;38.10;29.70;;;8.30;99.90;;;;;;5018373;28;20468;-79
2023/12/18 09:35:05;;;;;;;34.30;28.63;;;8.30;99.90;;;;;;5017424;28;20478;-79
2023/12/18 09:37:34;;;;;;;35.70;28.47;;;8.30;99.90;;;;;;5019410;28;20420;-79
2023/12/18 09:40:03;;;;;;;34.10;29.43;;;8.30;99.90;;;;;;5017595;28;20792;-79
2023/12/18 09:42:32;;;;;;;35.33;30.70;;;8.30;99.90;;;;;;5017699;28;20440;-78
2023/12/18 09:45:02;;;;;;;33.80;30.30;;;8.30;99.90;;;;;;5018883;28;20957;-79
2023/12/18 09:47:30;;;;;;;37.70;29.40;;;8.30;99.90;;;;;;5018134;28;20946;-79
2023/12/18 09:49:59;;;;;;;32.30;28.07;;;8.30;99.90;;;;;;5018074;28;20460;-79
2023/12/18 09:52:31;;;;;;;34.00;30.33;;;8.40;99.90;;;;;;5017191;28;20456;-79
2023/12/18 09:55:01;;;;;;;35.70;31.23;;;8.30;99.90;;;;;;5017145;28;20475;-78
2023/12/18 09:57:32;;;;;;;40.57;29.20;;;8.30;99.90;;;;;;5018718;28;20440;-79
2023/12/18 10:00:00;;;;;;;42.83;31.20;;;8.30;99.90;;;;;;5016812;28;20948;-79
2023/12/18 10:02:39;;;;;;;33.73;30.00;;;8.30;99.90;;;;;;5018992;28;20439;-79
2023/12/18 10:05:09;;;;;;;38.60;32.53;;;8.30;99.90;;;;;;5018461;28;20475;-79
2023/12/18 10:07:38;;;;;;;37.17;29.77;;;8.30;99.90;;;;;;5016833;28;20534;-79
2023/12/18 10:10:07;;;;;;;39.60;29.57;;;8.40;99.90;;;;;;5016617;28;20455;-79
2023/12/18 10:12:38;;;;;;;33.20;28.60;;;8.30;99.90;;;;;;5016302;28;20440;-79
2023/12/18 10:15:08;;;;;;;33.13;29.53;;;8.30;99.90;;;;;;5016538;28;20464;-78
2023/12/18 10:17:39;;;;;;;36.77;31.00;;;8.30;99.90;;;;;;5016383;28;20452;-79
2023/12/18 10:20:09;;;;;;;34.63;29.47;;;8.30;99.90;;;;;;5016228;28;20785;-78
2023/12/18 10:22:40;;;;;;;35.60;30.07;;;8.30;99.90;;;;;;5016347;28;20448;-79
2023/12/18 10:25:10;;;;;;;38.80;30.70;;;8.30;99.90;;;;;;5016223;28;20534;-79
2023/12/18 10:27:38;;;;;;;38.13;29.57;;;8.30;99.90;;;;;;5016449;28;20477;-79
2023/12/18 10:30:09;;;;;;;37.73;31.00;;;8.40;99.90;;;;;;5017379;28;20872;-80
2023/12/18 10:32:37;;;;;;;38.73;29.33;;;8.40;99.90;;;;;;5015744;28;21008;-79
2023/12/18 10:35:08;;;;;;;34.70;30.07;;;8.40;99.90;;;;;;5015892;28;20490;-79
2023/12/18 10:37:38;;;;;;;38.23;31.90;;;8.40;99.90;;;;;;5017829;28;20443;-79
2023/12/18 10:40:11;;;;;;;37.83;32.37;;;8.40;99.90;;;;;;5017189;28;20811;-79
2023/12/18 10:42:45;;;;;;;36.67;31.37;;;8.40;99.90;;;;;;5015931;28;20437;-79
2023/12/18 10:45:14;;;;;;;36.67;32.27;;;8.40;99.90;;;;;;5017228;28;21007;-79
2023/12/18 10:47:44;;;;;;;39.73;32.07;;;8.40;99.90;;;;;;5017261;28;20431;-79
2023/12/18 10:50:16;;;;;;;40.67;32.83;;;8.40;99.90;;;;;;5016896;28;20490;-79
2023/12/18 10:52:47;;;;;;;36.67;32.13;;;8.40;99.90;;;;;;5015332;28;20458;-79
2023/12/18 10:55:17;;;;;;;33.03;29.50;;;8.40;99.90;;;;;;5017238;28;20487;-78
2023/12/18 10:57:47;;;;;;;39.93;30.40;;;8.40;99.90;;;;;;5015878;28;20476;-79
2023/12/18 11:00:17;;;;;;;43.60;30.23;;;8.40;99.90;;;;;;5015594;28;20444;-79
2023/12/18 11:02:47;;;;;;;40.00;31.67;;;8.40;99.90;;;;;;5015245;28;20444;-79
2023/12/18 11:05:16;;;;;;;43.73;31.67;;;8.40;99.90;;;;;;5015355;28;20498;-79
2023/12/18 11:07:46;;;;;;;40.87;32.50;;;8.40;99.90;;;;;;5016347;28;20434;-79
2023/12/18 11:10:15;;;;;;;41.50;31.53;;;8.40;99.90;;;;;;5015567;28;20444;-80
2023/12/18 11:12:44;;;;;;;36.10;30.53;;;8.40;99.90;;;;;;5014953;28;20443;-79
2023/12/18 11:15:21;;;;;;;43.40;32.70;;;8.40;99.90;;;;;;5015244;28;20549;-79
2023/12/18 11:17:56;;;;;;;34.40;30.70;;;8.40;99.90;;;;;;5015460;28;20975;-79
2023/12/18 11:20:29;;;;;;;42.73;32.77;;;8.40;99.90;;;;;;5014883;28;20455;-79
2023/12/18 11:23:02;;;;;;;37.40;31.67;;;8.40;99.90;;;;;;5015437;28;20458;-79
2023/12/18 11:25:33;;;;;;;46.40;33.63;;;8.40;99.90;;;;;;5014879;28;20482;-80
2023/12/18 11:28:03;;;;;;;35.53;31.70;;;8.40;99.90;;;;;;5015150;28;20448;-79
2023/12/18 11:30:32;;;;;;;40.30;30.67;;;8.40;99.90;;;;;;5016465;28;20439;-79
2023/12/18 11:33:04;;;;;;;41.77;32.70;;;8.50;99.90;;;;;;5015145;28;20448;-79
2023/12/18 11:35:34;;;;;;;44.00;32.67;;;8.40;99.90;;;;;;5015023;28;20837;-79
2023/12/18 11:38:08;;;;;;;40.50;32.87;;;8.40;99.90;;;;;;5015190;28;20475;-79
2023/12/18 11:40:39;;;;;;;40.57;33.57;;;8.40;99.90;;;;;;5016197;28;20473;-79
2023/12/18 11:43:09;;;;;;;37.00;30.57;;;8.40;99.90;;;;;;5015361;28;20494;-79
2023/12/18 11:45:40;;;;;;;40.63;33.27;;;8.40;99.90;;;;;;5015579;28;20858;-80
2023/12/18 11:48:10;;;;;;;41.63;33.23;;;8.40;99.90;;;;;;5018142;28;20446;-79
2023/12/18 11:50:39;;;;;;;42.87;34.27;;;8.40;99.90;;;;;;5017924;28;20440;-81
2023/12/18 11:53:19;;;;;;;43.00;34.73;;;8.40;99.90;;;;;;5017099;28;20517;-81
2023/12/18 11:55:51;;;;;;;42.07;32.73;;;8.40;99.90;;;;;;5018540;28;20473;-80
2023/12/18 11:58:20;;;;;;;39.23;30.30;;;8.40;99.90;;;;;;5016982;28;20490;-80
2023/12/18 12:00:49;;;;;;;37.80;31.50;;;8.40;99.90;;;;;;5017014;28;20467;-79
2023/12/18 12:03:18;;;;;;;40.43;30.23;;;8.40;99.90;;;;;;5016469;28;20459;-80
2023/12/18 12:05:47;;;;;;;35.50;31.07;;;8.40;99.90;;;;;;5016371;28;20549;-79
2023/12/18 12:08:17;;;;;;;40.93;31.53;;;8.40;99.90;;;;;;5017565;28;20504;-79
2023/12/18 12:10:47;;;;;;;35.27;30.77;;;8.40;99.90;;;;;;5017827;28;20470;-79
2023/12/18 12:13:20;;;;;;;44.03;32.97;;;8.40;99.90;;;;;;5015734;28;20455;-81
2023/12/18 12:15:58;;;;;;;36.43;30.97;;;8.40;99.90;;;;;;5017339;28;20455;-80
2023/12/18 12:18:28;;;;;;;38.23;29.50;;;8.40;99.90;;;;;;5016044;28;20444;-80
2023/12/18 12:20:59;;;;;;;38.67;30.80;;;8.40;99.90;;;;;;5015781;28;20795;-79
2023/12/18 12:23:31;;;;;;;36.70;29.03;;;8.40;99.90;;;;;;5016655;28;20486;-79
2023/12/18 12:26:03;;;;;;;35.87;27.83;;;8.40;99.90;;;;;;5019389;28;20483;-80
2023/12/18 12:28:32;;;;;;;27.60;21.37;;;8.40;99.90;;;;;;5019067;28;20436;-78
2023/12/18 12:31:00;;;;;;;34.33;30.60;;;8.40;99.90;;;;;;5019266;28;20513;-79
2023/12/18 12:33:39;;;;;;;34.00;28.80;;;8.40;99.90;;;;;;5019055;28;20498;-79
2023/12/18 12:36:08;;;;;;;34.67;29.30;;;8.40;99.90;;;;;;5019277;28;20534;-79
2023/12/18 12:38:38;;;;;;;37.20;29.90;;;8.40;99.90;;;;;;5019063;28;20444;-79
2023/12/18 12:41:07;;;;;;;34.40;26.80;;;8.40;99.90;;;;;;5020245;28;20455;-79
2023/12/18 12:43:35;;;;;;;31.83;27.33;;;8.40;99.90;;;;;;5020221;28;20442;-79
2023/12/18 12:46:05;;;;;;;37.73;29.53;;;8.40;99.90;;;;;;5018651;28;20483;-79